createdAt,value
2022-08-05T00:01:36.242Z,21.30
2022-08-05T00:04:16.774Z,21.27
2022-08-05T00:06:45.337Z,21.25
2022-08-05T00:09:16.047Z,21.22
2022-08-05T00:11:55.618Z,21.21
2022-08-05T00:14:27.540Z,21.19
2022-08-05T00:16:56.997Z,21.15
2022-08-05T00:19:32.787Z,21.10
2022-08-05T00:22:01.912Z,21.05
2022-08-05T00:24:30.901Z,21.00
2022-08-05T00:27:00.806Z,20.93
2022-08-05T00:29:37.831Z,20.87
2022-08-05T00:32:12.219Z,20.81
2022-08-05T00:35:05.542Z,20.77
2022-08-05T00:37:50.420Z,20.73
2022-08-05T00:40:26.790Z,20.66
2022-08-05T00:42:58.344Z,20.61
2022-08-05T00:45:38.066Z,20.56
2022-08-05T00:48:10.785Z,20.52
2022-08-05T00:50:41.352Z,20.51
2022-08-05T00:54:00.617Z,20.51
2022-08-05T00:55:57.855Z,20.47
2022-08-05T00:58:27.543Z,20.43
2022-08-05T01:00:55.719Z,20.41
2022-08-05T01:03:24.282Z,20.40
2022-08-05T01:05:58.991Z,20.39
2022-08-05T01:08:40.930Z,20.38
2022-08-05T01:11:13.656Z,20.34
2022-08-05T01:13:58.699Z,20.22
2022-08-05T01:16:30.350Z,20.28
2022-08-05T01:19:01.100Z,20.25
2022-08-05T01:21:44.505Z,20.24
2022-08-05T01:24:30.169Z,20.27
2022-08-05T01:27:17.947Z,20.25
2022-08-05T01:29:50.382Z,20.22
2022-08-05T01:32:22.172Z,20.21
2022-08-05T01:34:52.138Z,20.21
2022-08-05T01:37:36.694Z,20.21
2022-08-05T01:40:12.497Z,20.21
2022-08-05T01:42:41.068Z,20.12
2022-08-05T01:45:11.158Z,20.18
2022-08-05T01:47:43.251Z,20.13
2022-08-05T01:50:15.017Z,20.17
2022-08-05T01:52:44.272Z,20.09
2022-08-05T01:55:13.008Z,20.05
2022-08-05T01:58:11.161Z,20.11
2022-08-05T02:00:34.294Z,20.05
2022-08-05T02:03:05.236Z,20.05
2022-08-05T02:05:35.927Z,19.91
2022-08-05T02:08:04.998Z,19.99
2022-08-05T02:10:35.889Z,20.03
2022-08-05T02:13:15.763Z,20.05
2022-08-05T02:15:47.773Z,19.98
2022-08-05T02:18:30.645Z,20.04
2022-08-05T02:21:03.235Z,20.04
2022-08-05T02:23:35.713Z,20.01
2022-08-05T02:26:04.565Z,20.01
2022-08-05T02:28:38.294Z,19.98
2022-08-05T02:31:14.634Z,19.97
2022-08-05T02:33:46.070Z,19.96
2022-08-05T02:36:17.890Z,19.92
2022-08-05T02:38:53.613Z,19.90
2022-08-05T02:41:23.134Z,19.87
2022-08-05T02:44:06.404Z,19.79
2022-08-05T02:46:53.114Z,19.68
2022-08-05T02:49:26.831Z,19.61
2022-08-05T02:52:04.375Z,19.60
2022-08-05T02:54:37.194Z,19.36
2022-08-05T02:57:10.209Z,19.61
2022-08-05T02:59:55.187Z,19.59
2022-08-05T03:02:27.435Z,19.58
2022-08-05T03:04:55.952Z,19.59
2022-08-05T03:08:00.705Z,19.59
2022-08-05T03:10:13.406Z,19.51
2022-08-05T03:12:41.400Z,19.43
2022-08-05T03:15:12.233Z,19.35
2022-08-05T03:17:44.888Z,19.35
2022-08-05T03:20:13.712Z,19.36
2022-08-05T03:22:46.730Z,19.32
2022-08-05T03:25:33.114Z,19.22
2022-08-05T03:28:07.093Z,19.13
2022-08-05T03:30:36.529Z,19.11
2022-08-05T03:33:07.507Z,19.12
2022-08-05T03:35:40.739Z,19.12
2022-08-05T03:38:11.714Z,19.06
2022-08-05T03:40:41.415Z,18.96
2022-08-05T03:43:59.294Z,18.86
2022-08-05T03:46:01.565Z,18.86
2022-08-05T03:48:35.239Z,18.88
2022-08-05T03:52:37.822Z,18.82
2022-08-05T03:55:53.093Z,18.90
2022-08-05T03:56:46.497Z,18.84
2022-08-05T03:59:16.112Z,18.90
2022-08-05T04:01:49.446Z,18.86
2022-08-05T04:04:21.353Z,18.95
2022-08-05T04:06:51.146Z,18.98
2022-08-05T04:09:20.278Z,19.02
2022-08-05T04:11:54.215Z,19.03
2022-08-05T04:14:30.587Z,18.99
2022-08-05T04:16:59.796Z,19.03
2022-08-05T04:19:29.527Z,19.04
2022-08-05T04:22:08.641Z,19.07
2022-08-05T04:24:44.587Z,19.06
2022-08-05T04:27:33.104Z,19.06
2022-08-05T04:30:09.192Z,19.05
2022-08-05T04:32:37.751Z,19.10
2022-08-05T04:35:17.609Z,19.11
2022-08-05T04:38:01.191Z,19.10
2022-08-05T04:40:31.061Z,19.12
2022-08-05T04:42:59.098Z,19.14
2022-08-05T04:45:47.927Z,19.16
2022-08-05T04:48:26.983Z,19.18
2022-08-05T04:51:02.668Z,19.21
2022-08-05T04:53:33.489Z,18.94
2022-08-05T04:56:32.912Z,19.27
2022-08-05T04:58:51.713Z,19.31
2022-08-05T05:02:04.082Z,19.34
2022-08-05T05:04:08.375Z,19.31
2022-08-05T05:06:44.277Z,19.33
2022-08-05T05:09:16.077Z,19.33
2022-08-05T05:11:54.602Z,19.33
2022-08-05T05:14:27.848Z,19.32
2022-08-05T05:17:00.227Z,19.34
2022-08-05T05:19:36.857Z,19.36
2022-08-05T05:22:22.651Z,19.39
2022-08-05T05:24:57.654Z,19.40
2022-08-05T05:27:44.614Z,19.42
2022-08-05T05:30:29.736Z,19.47
2022-08-05T05:33:03.838Z,19.54
2022-08-05T05:35:44.356Z,19.58
2022-08-05T05:38:14.454Z,19.59
2022-08-05T05:40:49.579Z,19.60
2022-08-05T05:43:21.874Z,19.61
2022-08-05T05:45:56.402Z,19.63
2022-08-05T05:48:27.576Z,19.64
2022-08-05T05:50:55.809Z,19.66
2022-08-05T05:53:25.165Z,19.69
2022-08-05T05:56:00.861Z,19.72
2022-08-05T05:58:31.742Z,19.72
2022-08-05T06:01:02.220Z,19.73
2022-08-05T06:04:00.600Z,19.80
2022-08-05T06:06:33.107Z,19.86
2022-08-05T06:09:04.281Z,19.88
2022-08-05T06:11:33.063Z,19.89
2022-08-05T06:14:01.061Z,19.96
2022-08-05T06:16:32.796Z,20.04
2022-08-05T06:19:05.970Z,20.11
2022-08-05T06:21:37.088Z,20.17
2022-08-05T06:24:11.959Z,20.22
2022-08-05T06:26:52.209Z,20.32
2022-08-05T06:29:25.104Z,20.40
2022-08-05T06:32:26.245Z,20.46
2022-08-05T06:34:57.845Z,20.50
2022-08-05T06:37:56.182Z,20.54
2022-08-05T06:40:18.161Z,20.58
2022-08-05T06:42:51.735Z,20.62
2022-08-05T06:45:44.082Z,20.64
2022-08-05T06:48:46.858Z,20.68
2022-08-05T06:50:56.919Z,20.73
2022-08-05T06:53:28.208Z,20.76
2022-08-05T06:55:58.261Z,20.77
2022-08-05T06:58:35.346Z,20.78
2022-08-05T07:01:05.991Z,20.82
2022-08-05T07:03:34.082Z,20.85
2022-08-05T07:06:06.284Z,20.87
2022-08-05T07:08:43.150Z,20.90
2022-08-05T07:11:17.762Z,20.95
2022-08-05T07:14:07.671Z,20.98
2022-08-05T07:17:58.778Z,21.02
2022-08-05T07:20:31.638Z,21.10
2022-08-05T07:22:30.147Z,21.19
2022-08-05T07:25:55.576Z,21.31
2022-08-05T07:27:57.160Z,21.45
2022-08-05T07:30:32.204Z,21.40
2022-08-05T07:33:01.738Z,21.29
2022-08-05T07:36:02.653Z,21.23
2022-08-05T07:38:26.326Z,21.20
2022-08-05T07:41:35.167Z,21.20
2022-08-05T07:43:52.393Z,21.27
2022-08-05T07:46:25.080Z,21.33
2022-08-05T07:49:04.535Z,21.37
2022-08-05T07:51:48.776Z,21.37
2022-08-05T07:54:23.150Z,21.41
2022-08-05T07:57:02.822Z,21.48
2022-08-05T07:59:43.499Z,21.49
2022-08-05T08:02:15.916Z,21.44
2022-08-05T08:04:49.215Z,21.38
2022-08-05T08:07:18.290Z,21.41
2022-08-05T08:09:52.444Z,21.32
2022-08-05T08:12:35.310Z,21.49
2022-08-05T08:15:15.767Z,21.54
2022-08-05T08:17:50.571Z,21.52
2022-08-05T08:20:59.873Z,21.52
2022-08-05T08:23:59.994Z,21.53
2022-08-05T08:26:00.330Z,21.59
2022-08-05T08:28:36.183Z,21.65
2022-08-05T08:31:07.146Z,21.69
2022-08-05T08:33:37.670Z,21.75
2022-08-05T08:36:38.451Z,21.83
2022-08-05T08:38:56.961Z,21.92
2022-08-05T08:41:52.412Z,21.80
2022-08-05T08:45:25.240Z,21.84
2022-08-05T08:47:03.156Z,21.83
2022-08-05T08:50:23.315Z,21.85
2022-08-05T08:52:21.305Z,21.92
2022-08-05T08:54:52.737Z,22.05
2022-08-05T08:57:21.077Z,22.10
2022-08-05T08:59:50.893Z,22.08
2022-08-05T09:02:21.803Z,22.09
2022-08-05T09:05:16.172Z,22.02
2022-08-05T09:07:56.713Z,21.99
2022-08-05T09:10:27.096Z,21.98
2022-08-05T09:12:56.039Z,21.99
2022-08-05T09:15:24.022Z,22.05
2022-08-05T09:17:54.723Z,22.09
2022-08-05T09:20:37.520Z,22.21
2022-08-05T09:23:19.748Z,22.37
2022-08-05T09:26:01.831Z,22.37
2022-08-05T09:28:33.497Z,22.37
2022-08-05T09:31:23.442Z,22.33
2022-08-05T09:33:56.645Z,22.27
2022-08-05T09:36:27.759Z,22.27
2022-08-05T09:39:02.610Z,22.39
2022-08-05T09:41:32.749Z,22.52
2022-08-05T09:44:01.210Z,22.63
2022-08-05T09:46:30.268Z,22.67
2022-08-05T09:49:08.032Z,22.54
2022-08-05T09:51:48.767Z,22.69
2022-08-05T09:54:21.417Z,22.74
2022-08-05T09:57:01.741Z,22.92
2022-08-05T09:59:35.055Z,23.05
2022-08-05T10:02:05.153Z,23.13
2022-08-05T10:04:41.037Z,23.21
2022-08-05T10:07:20.119Z,23.28
2022-08-05T10:10:14.282Z,23.24
2022-08-05T10:12:49.743Z,23.40
2022-08-05T10:15:20.988Z,23.55
2022-08-05T10:18:08.758Z,23.67
2022-08-05T10:20:40.191Z,23.65
2022-08-05T10:23:08.888Z,23.64
2022-08-05T10:25:50.218Z,23.62
2022-08-05T10:28:19.350Z,23.66
2022-08-05T10:32:47.206Z,23.85
2022-08-05T10:33:45.638Z,23.94
2022-08-05T10:36:23.738Z,23.82
2022-08-05T10:38:57.502Z,24.03
2022-08-05T10:41:45.172Z,24.07
2022-08-05T10:44:18.608Z,24.02
2022-08-05T10:46:50.550Z,24.07
2022-08-05T10:49:19.221Z,24.06
2022-08-05T10:52:00.160Z,24.07
2022-08-05T10:54:56.801Z,24.11
2022-08-05T10:57:30.843Z,24.12
2022-08-05T11:00:18.644Z,24.32
2022-08-05T11:03:25.628Z,24.49
2022-08-05T11:06:16.095Z,24.58
2022-08-05T11:09:18.645Z,24.72
2022-08-05T11:11:53.970Z,24.87
2022-08-05T11:14:49.512Z,24.97
2022-08-05T11:17:59.193Z,25.14
2022-08-05T11:20:44.011Z,25.28
2022-08-05T11:23:33.454Z,25.44
2022-08-05T11:26:32.181Z,25.41
2022-08-05T11:29:12.310Z,25.16
2022-08-05T11:31:54.030Z,24.99
2022-08-05T11:34:37.307Z,24.82
2022-08-05T11:37:06.212Z,24.69
2022-08-05T11:40:00.499Z,24.73
2022-08-05T11:42:32.934Z,24.84
2022-08-05T11:45:23.316Z,24.97
2022-08-05T11:47:55.750Z,25.00
2022-08-05T11:50:25.148Z,25.20
2022-08-05T11:52:57.766Z,25.39
2022-08-05T11:55:32.022Z,25.49
2022-08-05T11:58:10.417Z,25.44
2022-08-05T12:00:41.436Z,25.45
2022-08-05T12:03:28.429Z,25.57
2022-08-05T12:06:02.943Z,25.61
2022-08-05T12:08:31.732Z,25.74
2022-08-05T12:11:05.642Z,26.03
2022-08-05T12:13:48.808Z,26.36
2022-08-05T12:16:19.500Z,26.69
2022-08-05T12:18:52.739Z,26.71
2022-08-05T12:21:23.633Z,26.61
2022-08-05T12:24:04.799Z,26.71
2022-08-05T12:26:35.472Z,26.62
2022-08-05T12:29:09.377Z,26.48
2022-08-05T12:31:45.994Z,26.47
2022-08-05T12:34:20.600Z,26.50
2022-08-05T12:36:50.180Z,26.66
2022-08-05T12:39:19.220Z,26.70
2022-08-05T12:41:47.367Z,26.69
2022-08-05T12:44:28.626Z,26.57
2022-08-05T12:47:02.428Z,26.48
2022-08-05T12:50:04.278Z,26.32
2022-08-05T12:52:33.924Z,26.17
2022-08-05T12:55:03.528Z,26.25
2022-08-05T12:58:50.395Z,26.77
2022-08-05T13:02:01.735Z,27.04
2022-08-05T13:03:15.814Z,27.59
2022-08-05T13:05:47.488Z,27.98
2022-08-05T13:08:19.211Z,28.15
2022-08-05T13:10:50.775Z,28.21
2022-08-05T13:14:04.725Z,28.02
2022-08-05T13:16:15.334Z,27.95
2022-08-05T13:18:52.225Z,28.29
2022-08-05T13:21:23.316Z,28.17
2022-08-05T13:23:56.603Z,27.95
2022-08-05T13:26:30.160Z,27.85
2022-08-05T13:28:58.979Z,27.77
2022-08-05T13:31:33.747Z,27.78
2022-08-05T13:34:21.507Z,28.03
2022-08-05T13:36:53.300Z,27.93
2022-08-05T13:39:24.498Z,27.82
2022-08-05T13:42:14.097Z,28.07
2022-08-05T13:44:45.424Z,28.35
2022-08-05T13:47:35.909Z,28.19
2022-08-05T13:50:04.469Z,28.03
2022-08-05T13:52:35.198Z,27.95
2022-08-05T13:55:07.362Z,28.21
2022-08-05T13:57:49.016Z,28.39
2022-08-05T14:00:27.052Z,28.87
2022-08-05T14:02:57.461Z,29.28
2022-08-05T14:05:48.129Z,29.70
2022-08-05T14:08:20.707Z,30.27
2022-08-05T14:11:03.261Z,30.62
2022-08-05T14:13:43.215Z,30.88
2022-08-05T14:16:16.750Z,31.04
2022-08-05T14:18:46.645Z,31.28
2022-08-05T14:22:07.729Z,31.54
2022-08-05T14:24:02.477Z,31.80
2022-08-05T14:26:38.531Z,31.83
2022-08-05T14:29:16.665Z,31.83
2022-08-05T14:32:02.188Z,31.77
2022-08-05T14:34:35.514Z,31.68
2022-08-05T14:37:04.207Z,31.71
2022-08-05T14:39:49.536Z,31.77
2022-08-05T14:42:21.847Z,31.85
2022-08-05T14:44:50.046Z,31.96
2022-08-05T14:47:23.976Z,32.11
2022-08-05T14:50:18.418Z,32.04
2022-08-05T14:52:57.632Z,32.23
2022-08-05T14:55:38.347Z,32.22
2022-08-05T14:58:11.278Z,32.18
2022-08-05T15:00:59.446Z,32.05
2022-08-05T15:03:33.828Z,32.29
2022-08-05T15:06:15.048Z,32.47
2022-08-05T15:08:59.214Z,32.72
2022-08-05T15:11:51.828Z,32.87
2022-08-05T15:14:33.471Z,32.98
2022-08-05T15:17:04.170Z,32.62
2022-08-05T15:19:32.571Z,32.48
2022-08-05T15:22:02.314Z,32.41
2022-08-05T15:24:30.337Z,32.39
2022-08-05T15:26:58.762Z,32.41
2022-08-05T15:29:29.744Z,32.49
2022-08-05T15:32:02.211Z,32.69
2022-08-05T15:34:33.631Z,32.84
2022-08-05T15:37:07.026Z,33.00
2022-08-05T15:41:00.430Z,32.93
2022-08-05T15:42:54.223Z,33.12
2022-08-05T15:45:18.961Z,33.38
2022-08-05T15:48:07.054Z,33.62
2022-08-05T15:50:35.160Z,33.78
2022-08-05T15:53:05.757Z,33.81
2022-08-05T15:56:03.141Z,33.65
2022-08-05T15:58:23.251Z,33.69
2022-08-05T16:01:11.889Z,33.97
2022-08-05T16:03:40.984Z,33.95
2022-08-05T16:06:11.179Z,33.94
2022-08-05T16:08:41.036Z,33.97
2022-08-05T16:11:10.631Z,34.11
2022-08-05T16:13:38.607Z,34.22
2022-08-05T16:16:07.369Z,34.48
2022-08-05T16:18:52.466Z,34.69
2022-08-05T16:22:00.020Z,34.83
2022-08-05T16:24:12.850Z,34.72
2022-08-05T16:26:59.142Z,34.62
2022-08-05T16:29:28.634Z,34.78
2022-08-05T16:31:59.248Z,34.91
2022-08-05T16:34:27.395Z,34.76
2022-08-05T16:36:55.457Z,34.45
2022-08-05T16:40:04.757Z,34.17
2022-08-05T16:42:18.443Z,33.96
2022-08-05T16:44:54.040Z,33.94
2022-08-05T16:47:35.961Z,34.00
2022-08-05T16:50:05.505Z,34.07
2022-08-05T16:52:33.823Z,33.96
2022-08-05T16:55:04.285Z,33.74
2022-08-05T16:57:50.514Z,33.58
2022-08-05T17:00:26.126Z,33.62
2022-08-05T17:03:03.525Z,33.89
2022-08-05T17:05:31.661Z,34.07
2022-08-05T17:08:00.063Z,34.06
2022-08-05T17:10:30.535Z,34.03
2022-08-05T17:12:58.669Z,33.90
2022-08-05T17:15:47.809Z,33.87
2022-08-05T17:18:17.685Z,33.93
2022-08-05T17:20:46.982Z,34.04
2022-08-05T17:24:03.251Z,34.02
2022-08-05T17:26:04.328Z,33.92
2022-08-05T17:28:32.605Z,33.60
2022-08-05T17:31:00.597Z,32.89
2022-08-05T17:33:39.083Z,31.82
2022-08-05T17:36:33.783Z,30.56
2022-08-05T17:39:04.182Z,29.61
2022-08-05T17:42:17.473Z,28.88
2022-08-05T17:44:26.514Z,28.16
2022-08-05T17:47:00.403Z,27.60
2022-08-05T17:49:28.344Z,27.15
2022-08-05T17:52:16.468Z,26.68
2022-08-05T17:54:44.708Z,26.38
2022-08-05T17:57:14.202Z,26.00
2022-08-05T17:59:42.645Z,25.71
2022-08-05T18:02:11.075Z,25.41
2022-08-05T18:04:51.449Z,25.22
2022-08-05T18:07:21.535Z,25.06
2022-08-05T18:09:58.795Z,25.00
2022-08-05T18:12:32.008Z,24.92
2022-08-05T18:15:01.991Z,24.89
2022-08-05T18:18:00.481Z,24.81
2022-08-05T18:20:17.851Z,24.71
2022-08-05T18:22:54.739Z,24.55
2022-08-05T18:25:25.314Z,24.37
2022-08-05T18:28:05.159Z,24.23
2022-08-05T18:30:33.704Z,24.22
2022-08-05T18:33:01.711Z,24.17
2022-08-05T18:35:59.874Z,24.07
2022-08-05T18:38:19.281Z,23.98
2022-08-05T18:41:55.404Z,23.89
2022-08-05T18:43:48.602Z,23.83
2022-08-05T18:46:19.901Z,23.79
2022-08-05T18:48:52.257Z,23.74
2022-08-05T18:52:04.357Z,23.68
2022-08-05T18:54:26.259Z,23.60
2022-08-05T18:56:57.188Z,23.53
2022-08-05T18:59:43.440Z,23.49
2022-08-05T19:02:26.694Z,23.46
2022-08-05T19:05:01.227Z,23.42
2022-08-05T19:07:45.167Z,23.39
2022-08-05T19:10:14.438Z,23.38
2022-08-05T19:12:43.079Z,23.35
2022-08-05T19:15:54.730Z,23.28
2022-08-05T19:18:09.385Z,23.23
2022-08-05T19:20:41.690Z,23.16
2022-08-05T19:24:05.770Z,23.07
2022-08-05T19:26:03.795Z,23.02
2022-08-05T19:28:32.879Z,22.99
2022-08-05T19:31:05.977Z,23.00
2022-08-05T19:33:36.812Z,22.96
2022-08-05T19:36:06.911Z,22.81
2022-08-05T19:38:35.850Z,22.77
2022-08-05T19:41:07.129Z,22.66
2022-08-05T19:44:05.506Z,22.60
2022-08-05T19:46:30.625Z,22.51
2022-08-05T19:49:01.214Z,22.45
2022-08-05T19:52:06.011Z,22.40
2022-08-05T19:54:27.075Z,22.37
2022-08-05T19:56:59.710Z,22.37
2022-08-05T19:59:54.746Z,22.33
2022-08-05T20:02:20.165Z,22.28
2022-08-05T20:04:48.606Z,22.19
2022-08-05T20:07:46.188Z,22.15
2022-08-05T20:10:13.656Z,22.10
2022-08-05T20:12:45.995Z,22.05
2022-08-05T20:15:15.921Z,22.00
2022-08-05T20:18:09.614Z,21.98
2022-08-05T20:20:38.018Z,21.94
2022-08-05T20:23:06.678Z,21.96
2022-08-05T20:25:40.115Z,21.91
2022-08-05T20:28:13.664Z,21.87
2022-08-05T20:30:42.678Z,21.84
2022-08-05T20:33:12.480Z,21.80
2022-08-05T20:35:45.475Z,21.78
2022-08-05T20:38:20.192Z,21.77
2022-08-05T20:40:50.826Z,21.76
2022-08-05T20:43:57.717Z,21.76
2022-08-05T20:46:06.932Z,21.78
2022-08-05T20:48:36.489Z,21.79
2022-08-05T20:51:07.959Z,21.82
2022-08-05T20:53:40.890Z,21.80
2022-08-05T20:56:09.879Z,21.77
2022-08-05T20:58:37.898Z,21.74
2022-08-05T21:01:05.939Z,21.71
2022-08-05T21:03:34.498Z,21.71
2022-08-05T21:06:04.333Z,21.69
2022-08-05T21:08:52.359Z,21.67
2022-08-05T21:12:06.970Z,21.63
2022-08-05T21:14:08.581Z,21.58
2022-08-05T21:16:40.324Z,21.54
2022-08-05T21:19:08.321Z,21.52
2022-08-05T21:21:39.414Z,21.50
2022-08-05T21:24:13.545Z,21.46
2022-08-05T21:26:47.364Z,21.47
2022-08-05T21:29:26.521Z,21.47
2022-08-05T21:31:59.582Z,21.48
2022-08-05T21:34:28.651Z,21.49
2022-08-05T21:37:01.789Z,21.48
2022-08-05T21:39:30.531Z,21.48
2022-08-05T21:42:02.623Z,21.45
2022-08-05T21:44:31.088Z,21.44
2022-08-05T21:46:59.906Z,21.43
2022-08-05T21:49:56.892Z,21.42
2022-08-05T21:52:26.854Z,21.38
2022-08-05T21:54:56.210Z,21.35
2022-08-05T21:57:32.507Z,21.36
2022-08-05T22:00:05.783Z,21.34
2022-08-05T22:02:35.038Z,21.34
2022-08-05T22:05:04.437Z,21.32
2022-08-05T22:07:39.338Z,21.29
2022-08-05T22:10:26.847Z,21.26
2022-08-05T22:12:57.359Z,21.25
2022-08-05T22:16:02.654Z,21.25
2022-08-05T22:18:14.955Z,21.23
2022-08-05T22:20:44.246Z,21.21
2022-08-05T22:24:02.180Z,21.12
2022-08-05T22:26:38.091Z,21.16
2022-08-05T22:29:06.209Z,21.11
2022-08-05T22:31:44.940Z,21.11
2022-08-05T22:34:20.208Z,21.08
2022-08-05T22:36:56.534Z,21.06
2022-08-05T22:39:33.354Z,21.04
2022-08-05T22:42:10.198Z,20.99
2022-08-05T22:44:56.454Z,20.92
2022-08-05T22:47:29.096Z,20.93
2022-08-05T22:50:20.636Z,20.90
2022-08-05T22:52:47.470Z,20.81
2022-08-05T22:55:18.278Z,20.74
2022-08-05T22:57:49.087Z,20.66
2022-08-05T23:00:18.441Z,20.53
2022-08-05T23:02:49.034Z,20.43
2022-08-05T23:05:17.114Z,20.34
2022-08-05T23:07:48.537Z,20.28
2022-08-05T23:10:20.889Z,20.24
2022-08-05T23:12:54.544Z,20.22
2022-08-05T23:15:29.455Z,20.19
2022-08-05T23:18:01.176Z,20.09
2022-08-05T23:20:31.264Z,19.94
2022-08-05T23:23:00.188Z,19.92
2022-08-05T23:25:51.214Z,19.89
2022-08-05T23:28:20.930Z,19.79
2022-08-05T23:30:53.184Z,19.89
2022-08-05T23:33:26.067Z,19.92
2022-08-05T23:36:10.450Z,19.93
2022-08-05T23:38:38.652Z,19.91
2022-08-05T23:41:08.085Z,19.90
2022-08-05T23:44:03.617Z,19.86
2022-08-05T23:46:24.807Z,19.71
2022-08-05T23:49:00.014Z,19.64
2022-08-05T23:51:52.585Z,19.57
2022-08-05T23:54:25.981Z,19.55
2022-08-05T23:56:58.237Z,19.53
